sensor_id;sensor_type;location;lat;lon;timestamp;temperature;humidity
71879;DHT22;59755;43.834;4.364;2023-04-15T00:01:57;12.30;68.90
71879;DHT22;59755;43.834;4.364;2023-04-15T00:04:23;12.40;68.20
71879;DHT22;59755;43.834;4.364;2023-04-15T00:06:49;12.30;68.70
71879;DHT22;59755;43.834;4.364;2023-04-15T00:09:15;12.30;68.20
71879;DHT22;59755;43.834;4.364;2023-04-15T00:11:41;12.30;68.50
71879;DHT22;59755;43.834;4.364;2023-04-15T00:14:06;12.30;68.40
71879;DHT22;59755;43.834;4.364;2023-04-15T00:16:32;12.30;68.90
71879;DHT22;59755;43.834;4.364;2023-04-15T00:18:58;12.20;68.60
71879;DHT22;59755;43.834;4.364;2023-04-15T00:21:23;12.30;67.10
71879;DHT22;59755;43.834;4.364;2023-04-15T00:23:49;12.20;68.20
71879;DHT22;59755;43.834;4.364;2023-04-15T00:26:17;12.30;67.10
71879;DHT22;59755;43.834;4.364;2023-04-15T00:28:43;12.30;67.40
71879;DHT22;59755;43.834;4.364;2023-04-15T00:31:09;12.20;66.80
71879;DHT22;59755;43.834;4.364;2023-04-15T00:33:35;12.20;67.20
71879;DHT22;59755;43.834;4.364;2023-04-15T00:36:01;12.20;67.80
71879;DHT22;59755;43.834;4.364;2023-04-15T00:38:28;12.20;67.60
71879;DHT22;59755;43.834;4.364;2023-04-15T00:40:54;12.20;67.00
71879;DHT22;59755;43.834;4.364;2023-04-15T00:43:20;12.10;67.00
71879;DHT22;59755;43.834;4.364;2023-04-15T00:45:45;12.10;67.60
71879;DHT22;59755;43.834;4.364;2023-04-15T00:48:11;12.00;67.60
71879;DHT22;59755;43.834;4.364;2023-04-15T00:50:37;12.00;66.70
71879;DHT22;59755;43.834;4.364;2023-04-15T00:53:03;12.10;66.90
71879;DHT22;59755;43.834;4.364;2023-04-15T00:55:28;12.00;67.20
71879;DHT22;59755;43.834;4.364;2023-04-15T00:57:55;12.10;67.00
71879;DHT22;59755;43.834;4.364;2023-04-15T01:00:21;12.10;67.10
71879;DHT22;59755;43.834;4.364;2023-04-15T01:02:47;11.90;67.60
71879;DHT22;59755;43.834;4.364;2023-04-15T01:05:13;11.80;67.90
71879;DHT22;59755;43.834;4.364;2023-04-15T01:07:41;11.70;68.40
71879;DHT22;59755;43.834;4.364;2023-04-15T01:10:07;11.70;68.30
71879;DHT22;59755;43.834;4.364;2023-04-15T01:12:33;11.80;67.60
71879;DHT22;59755;43.834;4.364;2023-04-15T01:15:00;11.90;67.00
71879;DHT22;59755;43.834;4.364;2023-04-15T01:17:26;12.00;66.80
71879;DHT22;59755;43.834;4.364;2023-04-15T01:19:52;12.00;67.10
71879;DHT22;59755;43.834;4.364;2023-04-15T01:22:19;12.00;67.10
71879;DHT22;59755;43.834;4.364;2023-04-15T01:24:48;12.10;67.30
71879;DHT22;59755;43.834;4.364;2023-04-15T01:27:15;12.00;68.00
71879;DHT22;59755;43.834;4.364;2023-04-15T01:29:40;12.10;67.40
71879;DHT22;59755;43.834;4.364;2023-04-15T01:32:07;12.20;66.40
71879;DHT22;59755;43.834;4.364;2023-04-15T01:34:33;12.20;66.70
71879;DHT22;59755;43.834;4.364;2023-04-15T01:36:58;12.20;67.00
71879;DHT22;59755;43.834;4.364;2023-04-15T01:39:24;12.20;66.70
71879;DHT22;59755;43.834;4.364;2023-04-15T01:41:50;12.20;66.60
71879;DHT22;59755;43.834;4.364;2023-04-15T01:44:15;12.30;65.70
71879;DHT22;59755;43.834;4.364;2023-04-15T01:46:41;12.30;65.00
71879;DHT22;59755;43.834;4.364;2023-04-15T01:49:06;12.40;64.60
71879;DHT22;59755;43.834;4.364;2023-04-15T01:51:32;12.40;64.80
71879;DHT22;59755;43.834;4.364;2023-04-15T01:53:58;12.50;64.30
71879;DHT22;59755;43.834;4.364;2023-04-15T01:56:24;12.50;64.10
71879;DHT22;59755;43.834;4.364;2023-04-15T01:58:49;12.50;63.50
71879;DHT22;59755;43.834;4.364;2023-04-15T02:01:15;12.50;63.40
71879;DHT22;59755;43.834;4.364;2023-04-15T02:03:44;12.60;63.40
71879;DHT22;59755;43.834;4.364;2023-04-15T02:06:09;12.50;63.10
71879;DHT22;59755;43.834;4.364;2023-04-15T02:08:35;12.50;62.50
71879;DHT22;59755;43.834;4.364;2023-04-15T02:11:01;12.60;62.50
71879;DHT22;59755;43.834;4.364;2023-04-15T02:13:26;12.50;62.80
71879;DHT22;59755;43.834;4.364;2023-04-15T02:15:53;12.50;62.60
71879;DHT22;59755;43.834;4.364;2023-04-15T02:18:19;12.50;62.80
71879;DHT22;59755;43.834;4.364;2023-04-15T02:20:44;12.50;63.90
71879;DHT22;59755;43.834;4.364;2023-04-15T02:23:11;12.50;63.20
71879;DHT22;59755;43.834;4.364;2023-04-15T02:25:37;12.40;63.00
71879;DHT22;59755;43.834;4.364;2023-04-15T02:28:05;12.40;63.90
71879;DHT22;59755;43.834;4.364;2023-04-15T02:30:31;12.40;63.90
71879;DHT22;59755;43.834;4.364;2023-04-15T02:32:57;12.30;64.00
71879;DHT22;59755;43.834;4.364;2023-04-15T02:35:23;12.30;64.50
71879;DHT22;59755;43.834;4.364;2023-04-15T02:37:50;12.20;65.50
71879;DHT22;59755;43.834;4.364;2023-04-15T02:40:16;12.10;65.80
71879;DHT22;59755;43.834;4.364;2023-04-15T02:42:41;12.10;66.10
71879;DHT22;59755;43.834;4.364;2023-04-15T02:45:08;12.00;66.00
71879;DHT22;59755;43.834;4.364;2023-04-15T02:47:34;11.90;65.80
71879;DHT22;59755;43.834;4.364;2023-04-15T02:50:01;12.00;65.90
71879;DHT22;59755;43.834;4.364;2023-04-15T02:52:27;12.00;65.90
71879;DHT22;59755;43.834;4.364;2023-04-15T02:54:53;12.00;66.40
71879;DHT22;59755;43.834;4.364;2023-04-15T02:57:25;11.90;66.50
71879;DHT22;59755;43.834;4.364;2023-04-15T02:59:50;11.80;66.30
71879;DHT22;59755;43.834;4.364;2023-04-15T03:02:16;11.90;65.80
71879;DHT22;59755;43.834;4.364;2023-04-15T03:04:42;12.00;63.90
71879;DHT22;59755;43.834;4.364;2023-04-15T03:07:07;12.30;62.40
71879;DHT22;59755;43.834;4.364;2023-04-15T03:09:33;12.50;60.90
71879;DHT22;59755;43.834;4.364;2023-04-15T03:11:59;12.60;60.10
71879;DHT22;59755;43.834;4.364;2023-04-15T03:14:24;12.70;60.40
71879;DHT22;59755;43.834;4.364;2023-04-15T03:16:50;12.70;59.00
71879;DHT22;59755;43.834;4.364;2023-04-15T03:19:16;12.80;58.80
71879;DHT22;59755;43.834;4.364;2023-04-15T03:21:41;12.80;58.90
71879;DHT22;59755;43.834;4.364;2023-04-15T03:24:07;12.80;58.30
71879;DHT22;59755;43.834;4.364;2023-04-15T03:26:32;12.80;58.70
71879;DHT22;59755;43.834;4.364;2023-04-15T03:28:58;12.90;58.00
71879;DHT22;59755;43.834;4.364;2023-04-15T03:31:24;12.90;57.70
71879;DHT22;59755;43.834;4.364;2023-04-15T03:33:49;12.90;57.80
71879;DHT22;59755;43.834;4.364;2023-04-15T03:36:15;13.00;57.60
71879;DHT22;59755;43.834;4.364;2023-04-15T03:38:41;13.00;57.50
71879;DHT22;59755;43.834;4.364;2023-04-15T03:41:07;13.00;57.80
71879;DHT22;59755;43.834;4.364;2023-04-15T03:43:33;13.00;57.50
71879;DHT22;59755;43.834;4.364;2023-04-15T03:45:59;13.00;57.20
71879;DHT22;59755;43.834;4.364;2023-04-15T03:48:25;13.00;57.00
71879;DHT22;59755;43.834;4.364;2023-04-15T03:50:50;13.10;57.40
71879;DHT22;59755;43.834;4.364;2023-04-15T03:53:16;13.10;56.70
71879;DHT22;59755;43.834;4.364;2023-04-15T03:55:42;13.10;56.80
71879;DHT22;59755;43.834;4.364;2023-04-15T03:58:07;13.10;57.30
71879;DHT22;59755;43.834;4.364;2023-04-15T04:00:37;13.10;56.40
71879;DHT22;59755;43.834;4.364;2023-04-15T04:03:03;13.10;56.60
71879;DHT22;59755;43.834;4.364;2023-04-15T04:05:28;13.10;56.80
71879;DHT22;59755;43.834;4.364;2023-04-15T04:07:54;13.10;57.20
71879;DHT22;59755;43.834;4.364;2023-04-15T04:10:20;13.10;57.60
71879;DHT22;59755;43.834;4.364;2023-04-15T04:12:45;13.00;57.60
71879;DHT22;59755;43.834;4.364;2023-04-15T04:15:11;13.00;58.00
71879;DHT22;59755;43.834;4.364;2023-04-15T04:17:37;12.90;58.20
71879;DHT22;59755;43.834;4.364;2023-04-15T04:20:02;12.90;58.40
71879;DHT22;59755;43.834;4.364;2023-04-15T04:22:28;12.80;58.20
71879;DHT22;59755;43.834;4.364;2023-04-15T04:24:53;12.80;58.40
71879;DHT22;59755;43.834;4.364;2023-04-15T04:27:19;12.80;57.80
71879;DHT22;59755;43.834;4.364;2023-04-15T04:29:45;12.80;56.20
71879;DHT22;59755;43.834;4.364;2023-04-15T04:32:12;12.90;56.30
71879;DHT22;59755;43.834;4.364;2023-04-15T04:34:37;12.90;55.90
71879;DHT22;59755;43.834;4.364;2023-04-15T04:37:03;12.90;56.10
71879;DHT22;59755;43.834;4.364;2023-04-15T04:39:28;12.90;55.70
71879;DHT22;59755;43.834;4.364;2023-04-15T04:41:54;12.90;55.10
71879;DHT22;59755;43.834;4.364;2023-04-15T04:44:20;12.90;55.10
71879;DHT22;59755;43.834;4.364;2023-04-15T04:46:46;12.90;54.90
71879;DHT22;59755;43.834;4.364;2023-04-15T04:49:12;13.00;55.00
71879;DHT22;59755;43.834;4.364;2023-04-15T04:51:37;12.90;54.40
71879;DHT22;59755;43.834;4.364;2023-04-15T04:54:03;12.90;53.90
71879;DHT22;59755;43.834;4.364;2023-04-15T04:56:28;13.00;53.40
71879;DHT22;59755;43.834;4.364;2023-04-15T04:58:54;13.00;53.60
71879;DHT22;59755;43.834;4.364;2023-04-15T05:01:20;13.00;53.80
71879;DHT22;59755;43.834;4.364;2023-04-15T05:03:45;13.00;53.40
71879;DHT22;59755;43.834;4.364;2023-04-15T05:06:11;12.90;54.20
71879;DHT22;59755;43.834;4.364;2023-04-15T05:08:36;12.90;54.10
71879;DHT22;59755;43.834;4.364;2023-04-15T05:11:02;12.90;54.30
71879;DHT22;59755;43.834;4.364;2023-04-15T05:13:28;12.80;54.30
71879;DHT22;59755;43.834;4.364;2023-04-15T05:15:54;12.90;54.60
71879;DHT22;59755;43.834;4.364;2023-04-15T05:18:20;12.90;54.30
71879;DHT22;59755;43.834;4.364;2023-04-15T05:20:45;12.80;54.40
71879;DHT22;59755;43.834;4.364;2023-04-15T05:23:11;12.80;54.00
71879;DHT22;59755;43.834;4.364;2023-04-15T05:25:37;12.90;53.80
71879;DHT22;59755;43.834;4.364;2023-04-15T05:28:02;12.90;54.20
71879;DHT22;59755;43.834;4.364;2023-04-15T05:30:28;12.90;54.00
71879;DHT22;59755;43.834;4.364;2023-04-15T05:32:53;12.90;53.80
71879;DHT22;59755;43.834;4.364;2023-04-15T05:35:19;13.00;53.80
71879;DHT22;59755;43.834;4.364;2023-04-15T05:37:44;13.00;53.30
71879;DHT22;59755;43.834;4.364;2023-04-15T05:40:10;13.00;53.80
71879;DHT22;59755;43.834;4.364;2023-04-15T05:42:36;13.00;53.50
71879;DHT22;59755;43.834;4.364;2023-04-15T05:45:02;13.00;53.70
71879;DHT22;59755;43.834;4.364;2023-04-15T05:47:29;13.00;53.80
71879;DHT22;59755;43.834;4.364;2023-04-15T05:49:55;13.00;53.90
71879;DHT22;59755;43.834;4.364;2023-04-15T05:52:23;13.00;54.00
71879;DHT22;59755;43.834;4.364;2023-04-15T05:54:48;13.00;53.70
71879;DHT22;59755;43.834;4.364;2023-04-15T05:57:14;13.10;53.80
71879;DHT22;59755;43.834;4.364;2023-04-15T05:59:40;13.10;53.80
71879;DHT22;59755;43.834;4.364;2023-04-15T06:02:06;13.20;53.20
71879;DHT22;59755;43.834;4.364;2023-04-15T06:04:32;13.20;53.20
71879;DHT22;59755;43.834;4.364;2023-04-15T06:06:58;13.30;52.70
71879;DHT22;59755;43.834;4.364;2023-04-15T06:09:23;13.30;52.70
71879;DHT22;59755;43.834;4.364;2023-04-15T06:11:50;13.30;53.10
71879;DHT22;59755;43.834;4.364;2023-04-15T06:14:16;13.30;53.00
71879;DHT22;59755;43.834;4.364;2023-04-15T06:16:41;13.30;52.90
71879;DHT22;59755;43.834;4.364;2023-04-15T06:19:07;13.40;52.20
71879;DHT22;59755;43.834;4.364;2023-04-15T06:21:33;13.50;52.40
71879;DHT22;59755;43.834;4.364;2023-04-15T06:23:58;13.50;52.30
71879;DHT22;59755;43.834;4.364;2023-04-15T06:26:27;13.50;52.00
71879;DHT22;59755;43.834;4.364;2023-04-15T06:28:53;13.60;51.70
71879;DHT22;59755;43.834;4.364;2023-04-15T06:31:18;13.60;52.20
71879;DHT22;59755;43.834;4.364;2023-04-15T06:33:44;13.70;51.70
71879;DHT22;59755;43.834;4.364;2023-04-15T06:36:09;13.70;51.40
71879;DHT22;59755;43.834;4.364;2023-04-15T06:38:35;13.70;51.30
71879;DHT22;59755;43.834;4.364;2023-04-15T06:41:01;13.80;51.00
71879;DHT22;59755;43.834;4.364;2023-04-15T06:43:27;13.80;51.40
71879;DHT22;59755;43.834;4.364;2023-04-15T06:45:53;13.90;51.30
71879;DHT22;59755;43.834;4.364;2023-04-15T06:48:18;13.90;50.90
71879;DHT22;59755;43.834;4.364;2023-04-15T06:50:44;14.00;50.80
71879;DHT22;59755;43.834;4.364;2023-04-15T06:53:09;14.00;50.60
71879;DHT22;59755;43.834;4.364;2023-04-15T06:55:35;14.00;50.30
71879;DHT22;59755;43.834;4.364;2023-04-15T06:58:01;14.10;50.20
71879;DHT22;59755;43.834;4.364;2023-04-15T07:00:27;14.10;50.20
71879;DHT22;59755;43.834;4.364;2023-04-15T07:02:53;14.20;49.70
71879;DHT22;59755;43.834;4.364;2023-04-15T07:05:19;14.20;49.60
71879;DHT22;59755;43.834;4.364;2023-04-15T07:07:45;14.20;49.60
71879;DHT22;59755;43.834;4.364;2023-04-15T07:10:11;14.20;49.40
71879;DHT22;59755;43.834;4.364;2023-04-15T07:12:36;14.20;49.00
71879;DHT22;59755;43.834;4.364;2023-04-15T07:15:03;14.20;48.60
71879;DHT22;59755;43.834;4.364;2023-04-15T07:17:28;14.20;48.80
71879;DHT22;59755;43.834;4.364;2023-04-15T07:19:54;14.20;48.70
71879;DHT22;59755;43.834;4.364;2023-04-15T07:22:19;14.20;48.50
71879;DHT22;59755;43.834;4.364;2023-04-15T07:24:45;14.30;48.60
71879;DHT22;59755;43.834;4.364;2023-04-15T07:27:10;14.40;47.60
71879;DHT22;59755;43.834;4.364;2023-04-15T07:29:36;14.40;46.60
71879;DHT22;59755;43.834;4.364;2023-04-15T07:32:02;14.30;46.90
71879;DHT22;59755;43.834;4.364;2023-04-15T07:34:27;14.40;46.60
71879;DHT22;59755;43.834;4.364;2023-04-15T07:36:53;14.50;46.60
71879;DHT22;59755;43.834;4.364;2023-04-15T07:39:18;14.60;45.70
71879;DHT22;59755;43.834;4.364;2023-04-15T07:41:44;14.60;44.30
71879;DHT22;59755;43.834;4.364;2023-04-15T07:44:10;14.60;43.50
71879;DHT22;59755;43.834;4.364;2023-04-15T07:46:36;14.60;44.10
71879;DHT22;59755;43.834;4.364;2023-04-15T07:49:02;14.70;43.80
71879;DHT22;59755;43.834;4.364;2023-04-15T07:51:28;14.70;43.30
71879;DHT22;59755;43.834;4.364;2023-04-15T07:53:54;14.80;42.90
71879;DHT22;59755;43.834;4.364;2023-04-15T07:56:20;14.80;42.90
71879;DHT22;59755;43.834;4.364;2023-04-15T07:58:46;14.80;42.40
71879;DHT22;59755;43.834;4.364;2023-04-15T08:01:12;14.90;43.10
71879;DHT22;59755;43.834;4.364;2023-04-15T08:03:37;14.90;42.70
71879;DHT22;59755;43.834;4.364;2023-04-15T08:06:03;15.00;42.90
71879;DHT22;59755;43.834;4.364;2023-04-15T08:08:29;15.00;42.60
71879;DHT22;59755;43.834;4.364;2023-04-15T08:10:55;15.10;42.80
71879;DHT22;59755;43.834;4.364;2023-04-15T08:13:22;15.10;42.80
71879;DHT22;59755;43.834;4.364;2023-04-15T08:15:52;15.20;42.60
71879;DHT22;59755;43.834;4.364;2023-04-15T08:18:18;15.20;42.40
71879;DHT22;59755;43.834;4.364;2023-04-15T08:20:43;15.20;42.50
71879;DHT22;59755;43.834;4.364;2023-04-15T08:23:09;15.30;42.60
71879;DHT22;59755;43.834;4.364;2023-04-15T08:25:35;15.30;42.60
71879;DHT22;59755;43.834;4.364;2023-04-15T08:28:02;15.30;43.00
71879;DHT22;59755;43.834;4.364;2023-04-15T08:30:28;15.40;42.50
71879;DHT22;59755;43.834;4.364;2023-04-15T08:32:54;15.40;42.60
71879;DHT22;59755;43.834;4.364;2023-04-15T08:35:19;15.50;42.00
71879;DHT22;59755;43.834;4.364;2023-04-15T08:37:45;15.60;42.50
71879;DHT22;59755;43.834;4.364;2023-04-15T08:40:11;15.80;41.80
71879;DHT22;59755;43.834;4.364;2023-04-15T08:42:40;15.70;41.20
71879;DHT22;59755;43.834;4.364;2023-04-15T08:45:06;15.80;41.30
71879;DHT22;59755;43.834;4.364;2023-04-15T08:47:36;15.90;41.10
71879;DHT22;59755;43.834;4.364;2023-04-15T08:50:04;16.10;40.80
71879;DHT22;59755;43.834;4.364;2023-04-15T08:52:30;16.10;41.00
71879;DHT22;59755;43.834;4.364;2023-04-15T08:54:56;16.10;40.60
71879;DHT22;59755;43.834;4.364;2023-04-15T08:57:24;16.10;40.60
71879;DHT22;59755;43.834;4.364;2023-04-15T08:59:51;16.00;40.60
71879;DHT22;59755;43.834;4.364;2023-04-15T09:02:17;15.90;41.00
71879;DHT22;59755;43.834;4.364;2023-04-15T09:04:42;16.10;40.70
71879;DHT22;59755;43.834;4.364;2023-04-15T09:07:08;16.10;40.70
71879;DHT22;59755;43.834;4.364;2023-04-15T09:09:33;16.20;40.60
71879;DHT22;59755;43.834;4.364;2023-04-15T09:12:01;16.30;40.20
71879;DHT22;59755;43.834;4.364;2023-04-15T09:14:27;16.20;40.70
71879;DHT22;59755;43.834;4.364;2023-04-15T09:19:23;16.50;40.50
71879;DHT22;59755;43.834;4.364;2023-04-15T09:21:50;16.50;39.90
71879;DHT22;59755;43.834;4.364;2023-04-15T09:24:15;16.50;39.80
71879;DHT22;59755;43.834;4.364;2023-04-15T09:26:41;16.50;39.90
71879;DHT22;59755;43.834;4.364;2023-04-15T09:29:08;16.50;40.10
71879;DHT22;59755;43.834;4.364;2023-04-15T09:31:34;16.60;40.20
71879;DHT22;59755;43.834;4.364;2023-04-15T09:34:01;16.70;40.00
71879;DHT22;59755;43.834;4.364;2023-04-15T09:36:27;16.90;39.80
71879;DHT22;59755;43.834;4.364;2023-04-15T09:38:56;17.00;40.00
71879;DHT22;59755;43.834;4.364;2023-04-15T09:41:22;17.10;39.70
71879;DHT22;59755;43.834;4.364;2023-04-15T09:43:48;17.20;39.50
71879;DHT22;59755;43.834;4.364;2023-04-15T09:46:14;17.20;38.90
71879;DHT22;59755;43.834;4.364;2023-04-15T09:48:39;17.20;39.30
71879;DHT22;59755;43.834;4.364;2023-04-15T09:51:05;17.50;39.00
71879;DHT22;59755;43.834;4.364;2023-04-15T09:53:32;17.50;38.50
71879;DHT22;59755;43.834;4.364;2023-04-15T09:55:59;17.60;37.40
71879;DHT22;59755;43.834;4.364;2023-04-15T09:58:28;17.60;37.40
71879;DHT22;59755;43.834;4.364;2023-04-15T10:00:54;17.80;37.80
71879;DHT22;59755;43.834;4.364;2023-04-15T10:03:30;17.80;37.50
71879;DHT22;59755;43.834;4.364;2023-04-15T10:05:57;18.00;37.70
71879;DHT22;59755;43.834;4.364;2023-04-15T10:08:24;18.20;36.80
71879;DHT22;59755;43.834;4.364;2023-04-15T10:10:50;18.30;37.10
71879;DHT22;59755;43.834;4.364;2023-04-15T10:13:17;18.40;36.70
71879;DHT22;59755;43.834;4.364;2023-04-15T10:15:44;18.40;36.10
71879;DHT22;59755;43.834;4.364;2023-04-15T10:18:13;18.50;35.60
71879;DHT22;59755;43.834;4.364;2023-04-15T10:20:40;18.70;35.10
71879;DHT22;59755;43.834;4.364;2023-04-15T10:23:05;18.70;35.40
71879;DHT22;59755;43.834;4.364;2023-04-15T10:25:31;18.80;35.20
71879;DHT22;59755;43.834;4.364;2023-04-15T10:27:57;18.70;35.50
71879;DHT22;59755;43.834;4.364;2023-04-15T10:30:24;19.00;35.50
71879;DHT22;59755;43.834;4.364;2023-04-15T10:32:50;19.30;34.60
71879;DHT22;59755;43.834;4.364;2023-04-15T10:35:15;19.50;34.20
71879;DHT22;59755;43.834;4.364;2023-04-15T10:37:42;19.60;33.90
71879;DHT22;59755;43.834;4.364;2023-04-15T10:40:23;19.80;34.10
71879;DHT22;59755;43.834;4.364;2023-04-15T10:42:50;19.90;32.90
71879;DHT22;59755;43.834;4.364;2023-04-15T10:45:16;20.70;32.90
71879;DHT22;59755;43.834;4.364;2023-04-15T10:47:42;22.00;31.70
71879;DHT22;59755;43.834;4.364;2023-04-15T10:50:08;21.40;32.20
71879;DHT22;59755;43.834;4.364;2023-04-15T10:52:34;22.40;30.70
71879;DHT22;59755;43.834;4.364;2023-04-15T10:55:11;22.90;29.60
71879;DHT22;59755;43.834;4.364;2023-04-15T10:57:37;23.30;28.60
71879;DHT22;59755;43.834;4.364;2023-04-15T11:05:04;23.20;27.70
71879;DHT22;59755;43.834;4.364;2023-04-15T11:07:36;23.40;27.00
71879;DHT22;59755;43.834;4.364;2023-04-15T11:10:49;23.90;26.60
71879;DHT22;59755;43.834;4.364;2023-04-15T11:12:50;24.20;26.30
71879;DHT22;59755;43.834;4.364;2023-04-15T11:17:57;24.30;26.10
71879;DHT22;59755;43.834;4.364;2023-04-15T11:20:23;24.60;24.90
71879;DHT22;59755;43.834;4.364;2023-04-15T11:22:50;25.10;23.10
71879;DHT22;59755;43.834;4.364;2023-04-15T11:25:36;25.20;22.90
71879;DHT22;59755;43.834;4.364;2023-04-15T11:28:02;25.70;22.40
71879;DHT22;59755;43.834;4.364;2023-04-15T11:30:31;25.60;23.00
71879;DHT22;59755;43.834;4.364;2023-04-15T11:33:01;26.40;22.60
71879;DHT22;59755;43.834;4.364;2023-04-15T11:35:27;26.20;22.70
71879;DHT22;59755;43.834;4.364;2023-04-15T11:37:53;25.70;23.00
71879;DHT22;59755;43.834;4.364;2023-04-15T11:40:26;26.30;22.50
71879;DHT22;59755;43.834;4.364;2023-04-15T11:45:47;26.90;22.10
71879;DHT22;59755;43.834;4.364;2023-04-15T11:48:13;26.90;21.90
71879;DHT22;59755;43.834;4.364;2023-04-15T11:50:38;27.10;21.90
71879;DHT22;59755;43.834;4.364;2023-04-15T11:53:08;25.90;21.70
71879;DHT22;59755;43.834;4.364;2023-04-15T11:55:41;25.10;22.30
71879;DHT22;59755;43.834;4.364;2023-04-15T11:58:09;25.80;22.10
71879;DHT22;59755;43.834;4.364;2023-04-15T12:00:35;26.30;21.20
71879;DHT22;59755;43.834;4.364;2023-04-15T12:11:17;25.30;21.00
71879;DHT22;59755;43.834;4.364;2023-04-15T12:13:44;26.10;20.40
71879;DHT22;59755;43.834;4.364;2023-04-15T12:16:10;25.20;20.10
71879;DHT22;59755;43.834;4.364;2023-04-15T12:18:38;25.70;20.30
71879;DHT22;59755;43.834;4.364;2023-04-15T12:21:10;26.00;20.20
71879;DHT22;59755;43.834;4.364;2023-04-15T12:23:43;26.00;20.30
71879;DHT22;59755;43.834;4.364;2023-04-15T12:26:12;26.30;20.10
71879;DHT22;59755;43.834;4.364;2023-04-15T12:28:39;27.30;19.90
71879;DHT22;59755;43.834;4.364;2023-04-15T12:31:08;27.10;19.70
71879;DHT22;59755;43.834;4.364;2023-04-15T12:33:34;26.60;19.80
71879;DHT22;59755;43.834;4.364;2023-04-15T12:36:00;26.90;19.90
71879;DHT22;59755;43.834;4.364;2023-04-15T12:38:25;25.10;21.20
71879;DHT22;59755;43.834;4.364;2023-04-15T12:40:51;22.80;23.40
71879;DHT22;59755;43.834;4.364;2023-04-15T12:43:16;21.50;24.60
71879;DHT22;59755;43.834;4.364;2023-04-15T12:45:42;22.60;23.90
71879;DHT22;59755;43.834;4.364;2023-04-15T12:48:08;23.30;23.60
71879;DHT22;59755;43.834;4.364;2023-04-15T12:50:36;24.30;23.30
71879;DHT22;59755;43.834;4.364;2023-04-15T12:53:02;24.80;22.50
71879;DHT22;59755;43.834;4.364;2023-04-15T12:55:28;25.90;21.70
71879;DHT22;59755;43.834;4.364;2023-04-15T12:57:55;25.90;21.80
71879;DHT22;59755;43.834;4.364;2023-04-15T13:00:21;24.70;22.20
71879;DHT22;59755;43.834;4.364;2023-04-15T13:02:46;24.20;21.60
71879;DHT22;59755;43.834;4.364;2023-04-15T13:05:12;23.70;21.80
71879;DHT22;59755;43.834;4.364;2023-04-15T13:07:40;24.60;21.80
71879;DHT22;59755;43.834;4.364;2023-04-15T13:10:06;22.90;23.10
71879;DHT22;59755;43.834;4.364;2023-04-15T13:12:31;23.90;22.60
71879;DHT22;59755;43.834;4.364;2023-04-15T13:15:00;22.70;23.40
71879;DHT22;59755;43.834;4.364;2023-04-15T13:17:26;21.90;23.40
71879;DHT22;59755;43.834;4.364;2023-04-15T13:19:52;22.20;23.30
71879;DHT22;59755;43.834;4.364;2023-04-15T13:22:17;23.50;22.40
71879;DHT22;59755;43.834;4.364;2023-04-15T13:24:43;25.70;21.50
71879;DHT22;59755;43.834;4.364;2023-04-15T13:27:08;26.70;20.00
71879;DHT22;59755;43.834;4.364;2023-04-15T13:29:34;25.60;20.60
71879;DHT22;59755;43.834;4.364;2023-04-15T13:32:00;26.60;20.60
71879;DHT22;59755;43.834;4.364;2023-04-15T13:34:25;27.60;18.90
71879;DHT22;59755;43.834;4.364;2023-04-15T13:36:51;26.60;19.30
71879;DHT22;59755;43.834;4.364;2023-04-15T13:39:16;23.70;21.00
71879;DHT22;59755;43.834;4.364;2023-04-15T13:41:42;22.60;21.80
71879;DHT22;59755;43.834;4.364;2023-04-15T13:44:08;21.50;22.90
71879;DHT22;59755;43.834;4.364;2023-04-15T13:46:33;22.00;23.00
71879;DHT22;59755;43.834;4.364;2023-04-15T13:48:59;24.90;21.00
71879;DHT22;59755;43.834;4.364;2023-04-15T13:51:24;26.20;20.20
71879;DHT22;59755;43.834;4.364;2023-04-15T13:53:51;25.10;20.20
71879;DHT22;59755;43.834;4.364;2023-04-15T13:56:16;25.10;20.00
71879;DHT22;59755;43.834;4.364;2023-04-15T13:58:42;25.30;20.30
71879;DHT22;59755;43.834;4.364;2023-04-15T14:01:08;25.60;20.20
71879;DHT22;59755;43.834;4.364;2023-04-15T14:03:34;26.30;19.60
71879;DHT22;59755;43.834;4.364;2023-04-15T14:06:00;25.90;19.90
71879;DHT22;59755;43.834;4.364;2023-04-15T14:08:25;26.20;19.70
71879;DHT22;59755;43.834;4.364;2023-04-15T14:10:51;25.90;19.90
71879;DHT22;59755;43.834;4.364;2023-04-15T14:13:16;26.60;19.70
71879;DHT22;59755;43.834;4.364;2023-04-15T14:15:43;26.00;20.00
71879;DHT22;59755;43.834;4.364;2023-04-15T14:18:09;24.90;21.00
71879;DHT22;59755;43.834;4.364;2023-04-15T14:20:34;26.00;20.60
71879;DHT22;59755;43.834;4.364;2023-04-15T14:23:00;26.40;20.20
71879;DHT22;59755;43.834;4.364;2023-04-15T14:25:26;24.80;21.20
71879;DHT22;59755;43.834;4.364;2023-04-15T14:27:51;24.00;21.80
71879;DHT22;59755;43.834;4.364;2023-04-15T14:30:17;23.40;22.20
71879;DHT22;59755;43.834;4.364;2023-04-15T14:32:43;22.00;23.50
71879;DHT22;59755;43.834;4.364;2023-04-15T14:35:09;21.20;24.30
71879;DHT22;59755;43.834;4.364;2023-04-15T14:37:34;20.70;24.80
71879;DHT22;59755;43.834;4.364;2023-04-15T14:40:00;20.30;25.50
71879;DHT22;59755;43.834;4.364;2023-04-15T14:42:25;19.80;26.00
71879;DHT22;59755;43.834;4.364;2023-04-15T14:44:51;19.80;26.40
71879;DHT22;59755;43.834;4.364;2023-04-15T14:47:16;20.10;26.50
71879;DHT22;59755;43.834;4.364;2023-04-15T14:49:42;19.90;26.50
71879;DHT22;59755;43.834;4.364;2023-04-15T14:52:08;19.50;26.60
71879;DHT22;59755;43.834;4.364;2023-04-15T14:54:34;19.40;26.80
71879;DHT22;59755;43.834;4.364;2023-04-15T14:56:59;18.80;27.50
71879;DHT22;59755;43.834;4.364;2023-04-15T14:59:26;18.80;27.70
71879;DHT22;59755;43.834;4.364;2023-04-15T15:01:52;18.80;27.70
71879;DHT22;59755;43.834;4.364;2023-04-15T15:04:17;18.90;27.70
71879;DHT22;59755;43.834;4.364;2023-04-15T15:06:43;19.00;28.00
71879;DHT22;59755;43.834;4.364;2023-04-15T15:09:09;18.80;28.20
71879;DHT22;59755;43.834;4.364;2023-04-15T15:11:34;18.90;28.20
71879;DHT22;59755;43.834;4.364;2023-04-15T15:14:00;19.10;28.30
71879;DHT22;59755;43.834;4.364;2023-04-15T15:16:26;18.90;28.90
71879;DHT22;59755;43.834;4.364;2023-04-15T15:18:52;18.60;29.60
71879;DHT22;59755;43.834;4.364;2023-04-15T15:21:17;18.50;29.80
71879;DHT22;59755;43.834;4.364;2023-04-15T15:23:43;18.60;29.80
71879;DHT22;59755;43.834;4.364;2023-04-15T15:26:09;18.60;29.90
71879;DHT22;59755;43.834;4.364;2023-04-15T15:28:36;18.50;30.20
71879;DHT22;59755;43.834;4.364;2023-04-15T15:31:01;18.50;30.00
71879;DHT22;59755;43.834;4.364;2023-04-15T15:33:27;18.20;30.20
71879;DHT22;59755;43.834;4.364;2023-04-15T15:35:52;18.20;30.50
71879;DHT22;59755;43.834;4.364;2023-04-15T15:38:18;18.20;30.60
71879;DHT22;59755;43.834;4.364;2023-04-15T15:40:44;18.10;30.80
71879;DHT22;59755;43.834;4.364;2023-04-15T15:43:09;18.20;30.90
71879;DHT22;59755;43.834;4.364;2023-04-15T15:45:35;18.30;31.00